sensor_id;sensor_type;location;lat;lon;timestamp;P1;durP1;ratioP1;P2;durP2;ratioP2
66727;SDS011;53641;44.274;19.890;2022-08-16T00:01:18;6.80;;;5.25;;
66727;SDS011;53641;44.274;19.890;2022-08-16T00:03:46;8.32;;;5.40;;
66727;SDS011;53641;44.274;19.890;2022-08-16T00:06:11;7.53;;;5.00;;
66727;SDS011;53641;44.274;19.890;2022-08-16T00:08:37;6.05;;;4.78;;
66727;SDS011;53641;44.274;19.890;2022-08-16T00:11:04;7.00;;;5.60;;
66727;SDS011;53641;44.274;19.890;2022-08-16T00:13:32;7.22;;;4.80;;
66727;SDS011;53641;44.274;19.890;2022-08-16T00:15:58;8.98;;;5.68;;
66727;SDS011;53641;44.274;19.890;2022-08-16T00:18:24;10.65;;;6.18;;
66727;SDS011;53641;44.274;19.890;2022-08-16T00:20:50;11.02;;;5.10;;
66727;SDS011;53641;44.274;19.890;2022-08-16T00:23:15;11.35;;;6.40;;
66727;SDS011;53641;44.274;19.890;2022-08-16T00:25:42;7.18;;;5.28;;
66727;SDS011;53641;44.274;19.890;2022-08-16T00:28:08;6.65;;;4.57;;
66727;SDS011;53641;44.274;19.890;2022-08-16T00:30:35;9.63;;;5.35;;
66727;SDS011;53641;44.274;19.890;2022-08-16T00:33:01;5.82;;;4.82;;
66727;SDS011;53641;44.274;19.890;2022-08-16T00:35:29;6.20;;;5.28;;
66727;SDS011;53641;44.274;19.890;2022-08-16T00:37:58;7.90;;;4.68;;
66727;SDS011;53641;44.274;19.890;2022-08-16T00:40:36;5.78;;;4.97;;
66727;SDS011;53641;44.274;19.890;2022-08-16T00:43:10;6.45;;;5.38;;
66727;SDS011;53641;44.274;19.890;2022-08-16T00:46:41;6.00;;;5.05;;
66727;SDS011;53641;44.274;19.890;2022-08-16T00:48:48;8.48;;;5.50;;
66727;SDS011;53641;44.274;19.890;2022-08-16T00:51:15;6.38;;;5.75;;
66727;SDS011;53641;44.274;19.890;2022-08-16T00:53:43;12.43;;;5.95;;
66727;SDS011;53641;44.274;19.890;2022-08-16T00:56:10;5.95;;;5.35;;
66727;SDS011;53641;44.274;19.890;2022-08-16T00:58:40;7.63;;;6.07;;
66727;SDS011;53641;44.274;19.890;2022-08-16T01:01:09;8.07;;;5.47;;
66727;SDS011;53641;44.274;19.890;2022-08-16T01:03:36;8.30;;;5.55;;
66727;SDS011;53641;44.274;19.890;2022-08-16T01:06:04;6.32;;;5.43;;
66727;SDS011;53641;44.274;19.890;2022-08-16T01:08:30;7.45;;;5.18;;
66727;SDS011;53641;44.274;19.890;2022-08-16T01:10:57;6.78;;;5.53;;
66727;SDS011;53641;44.274;19.890;2022-08-16T01:13:24;11.27;;;5.38;;
66727;SDS011;53641;44.274;19.890;2022-08-16T01:15:54;10.55;;;5.05;;
66727;SDS011;53641;44.274;19.890;2022-08-16T01:18:24;7.72;;;5.50;;
66727;SDS011;53641;44.274;19.890;2022-08-16T01:20:59;9.18;;;5.57;;
66727;SDS011;53641;44.274;19.890;2022-08-16T01:24:06;6.35;;;5.28;;
66727;SDS011;53641;44.274;19.890;2022-08-16T01:26:29;7.03;;;5.13;;
66727;SDS011;53641;44.274;19.890;2022-08-16T01:28:58;5.28;;;4.78;;
66727;SDS011;53641;44.274;19.890;2022-08-16T01:31:26;5.85;;;5.20;;
66727;SDS011;53641;44.274;19.890;2022-08-16T01:33:53;7.63;;;5.57;;
66727;SDS011;53641;44.274;19.890;2022-08-16T01:36:19;5.63;;;4.93;;
66727;SDS011;53641;44.274;19.890;2022-08-16T01:38:46;12.93;;;5.97;;
66727;SDS011;53641;44.274;19.890;2022-08-16T01:41:15;6.22;;;5.13;;
66727;SDS011;53641;44.274;19.890;2022-08-16T01:43:43;7.95;;;5.45;;
66727;SDS011;53641;44.274;19.890;2022-08-16T01:46:35;6.78;;;5.78;;
66727;SDS011;53641;44.274;19.890;2022-08-16T01:49:24;7.30;;;5.80;;
66727;SDS011;53641;44.274;19.890;2022-08-16T01:51:54;5.93;;;5.13;;
66727;SDS011;53641;44.274;19.890;2022-08-16T01:54:23;8.52;;;5.57;;
66727;SDS011;53641;44.274;19.890;2022-08-16T01:56:49;9.55;;;5.50;;
66727;SDS011;53641;44.274;19.890;2022-08-16T01:59:16;8.10;;;5.80;;
66727;SDS011;53641;44.274;19.890;2022-08-16T02:01:43;8.75;;;5.47;;
66727;SDS011;53641;44.274;19.890;2022-08-16T02:04:10;5.93;;;4.95;;
66727;SDS011;53641;44.274;19.890;2022-08-16T02:06:36;7.97;;;5.78;;
66727;SDS011;53641;44.274;19.890;2022-08-16T02:09:02;8.55;;;6.55;;
66727;SDS011;53641;44.274;19.890;2022-08-16T02:11:28;10.02;;;6.50;;
66727;SDS011;53641;44.274;19.890;2022-08-16T02:13:54;6.70;;;5.45;;
66727;SDS011;53641;44.274;19.890;2022-08-16T02:16:19;6.05;;;5.45;;
66727;SDS011;53641;44.274;19.890;2022-08-16T02:18:45;7.63;;;5.47;;
66727;SDS011;53641;44.274;19.890;2022-08-16T02:21:12;7.47;;;5.47;;
66727;SDS011;53641;44.274;19.890;2022-08-16T02:23:39;8.07;;;5.20;;
66727;SDS011;53641;44.274;19.890;2022-08-16T02:26:05;8.18;;;5.07;;
66727;SDS011;53641;44.274;19.890;2022-08-16T02:28:32;7.38;;;5.53;;
66727;SDS011;53641;44.274;19.890;2022-08-16T02:31:00;10.88;;;5.63;;
66727;SDS011;53641;44.274;19.890;2022-08-16T02:33:36;9.02;;;5.72;;
66727;SDS011;53641;44.274;19.890;2022-08-16T02:36:03;10.95;;;6.25;;
66727;SDS011;53641;44.274;19.890;2022-08-16T02:38:29;6.53;;;5.63;;
66727;SDS011;53641;44.274;19.890;2022-08-16T02:40:57;9.00;;;5.07;;
66727;SDS011;53641;44.274;19.890;2022-08-16T02:43:25;7.82;;;5.70;;
66727;SDS011;53641;44.274;19.890;2022-08-16T02:45:54;12.90;;;5.75;;
66727;SDS011;53641;44.274;19.890;2022-08-16T02:48:20;6.53;;;5.65;;
66727;SDS011;53641;44.274;19.890;2022-08-16T02:50:46;8.95;;;5.22;;
66727;SDS011;53641;44.274;19.890;2022-08-16T02:53:12;11.98;;;5.68;;
66727;SDS011;53641;44.274;19.890;2022-08-16T02:55:38;9.88;;;5.43;;
66727;SDS011;53641;44.274;19.890;2022-08-16T02:58:04;7.15;;;5.45;;
66727;SDS011;53641;44.274;19.890;2022-08-16T03:00:30;6.70;;;4.95;;
66727;SDS011;53641;44.274;19.890;2022-08-16T03:02:56;7.22;;;5.93;;
66727;SDS011;53641;44.274;19.890;2022-08-16T03:05:22;9.35;;;5.60;;
66727;SDS011;53641;44.274;19.890;2022-08-16T03:07:48;9.63;;;5.53;;
66727;SDS011;53641;44.274;19.890;2022-08-16T03:10:14;9.23;;;6.07;;
66727;SDS011;53641;44.274;19.890;2022-08-16T03:12:40;9.55;;;5.85;;
66727;SDS011;53641;44.274;19.890;2022-08-16T03:15:09;7.05;;;6.00;;
66727;SDS011;53641;44.274;19.890;2022-08-16T03:17:37;7.38;;;5.30;;
66727;SDS011;53641;44.274;19.890;2022-08-16T03:20:04;6.25;;;5.60;;
66727;SDS011;53641;44.274;19.890;2022-08-16T03:22:31;6.63;;;5.40;;
66727;SDS011;53641;44.274;19.890;2022-08-16T03:24:58;8.95;;;5.85;;
66727;SDS011;53641;44.274;19.890;2022-08-16T03:27:25;8.73;;;6.43;;
66727;SDS011;53641;44.274;19.890;2022-08-16T03:29:54;7.10;;;5.38;;
66727;SDS011;53641;44.274;19.890;2022-08-16T03:32:20;9.32;;;5.28;;
66727;SDS011;53641;44.274;19.890;2022-08-16T03:34:46;9.60;;;6.13;;
66727;SDS011;53641;44.274;19.890;2022-08-16T03:37:12;9.30;;;5.10;;
66727;SDS011;53641;44.274;19.890;2022-08-16T03:39:38;8.63;;;5.50;;
66727;SDS011;53641;44.274;19.890;2022-08-16T03:42:04;11.23;;;5.88;;
66727;SDS011;53641;44.274;19.890;2022-08-16T03:44:31;8.38;;;5.60;;
66727;SDS011;53641;44.274;19.890;2022-08-16T03:46:57;12.82;;;5.35;;
66727;SDS011;53641;44.274;19.890;2022-08-16T03:49:23;8.25;;;5.53;;
66727;SDS011;53641;44.274;19.890;2022-08-16T03:51:49;13.05;;;6.22;;
66727;SDS011;53641;44.274;19.890;2022-08-16T03:54:15;10.65;;;5.72;;
66727;SDS011;53641;44.274;19.890;2022-08-16T03:56:41;11.55;;;6.22;;
66727;SDS011;53641;44.274;19.890;2022-08-16T03:59:07;12.90;;;5.93;;
66727;SDS011;53641;44.274;19.890;2022-08-16T04:01:33;6.93;;;6.13;;
66727;SDS011;53641;44.274;19.890;2022-08-16T04:03:58;7.57;;;5.78;;
66727;SDS011;53641;44.274;19.890;2022-08-16T04:06:25;9.50;;;5.60;;
66727;SDS011;53641;44.274;19.890;2022-08-16T04:08:50;11.18;;;6.15;;
66727;SDS011;53641;44.274;19.890;2022-08-16T04:11:16;10.00;;;5.38;;
66727;SDS011;53641;44.274;19.890;2022-08-16T04:13:42;12.30;;;6.32;;
66727;SDS011;53641;44.274;19.890;2022-08-16T04:16:09;10.27;;;5.65;;
66727;SDS011;53641;44.274;19.890;2022-08-16T04:18:36;12.25;;;6.15;;
66727;SDS011;53641;44.274;19.890;2022-08-16T04:21:03;11.93;;;6.00;;
66727;SDS011;53641;44.274;19.890;2022-08-16T04:23:29;9.18;;;5.28;;
66727;SDS011;53641;44.274;19.890;2022-08-16T04:25:55;9.98;;;5.47;;
66727;SDS011;53641;44.274;19.890;2022-08-16T04:28:21;8.77;;;5.47;;
66727;SDS011;53641;44.274;19.890;2022-08-16T04:30:46;8.45;;;6.13;;
66727;SDS011;53641;44.274;19.890;2022-08-16T04:33:12;8.57;;;5.65;;
66727;SDS011;53641;44.274;19.890;2022-08-16T04:35:38;12.52;;;5.50;;
66727;SDS011;53641;44.274;19.890;2022-08-16T04:38:04;7.95;;;5.20;;
66727;SDS011;53641;44.274;19.890;2022-08-16T04:40:30;8.75;;;5.30;;
66727;SDS011;53641;44.274;19.890;2022-08-16T04:42:56;9.20;;;5.20;;
66727;SDS011;53641;44.274;19.890;2022-08-16T04:45:24;9.88;;;4.97;;
66727;SDS011;53641;44.274;19.890;2022-08-16T04:47:50;9.65;;;5.30;;
66727;SDS011;53641;44.274;19.890;2022-08-16T04:50:21;5.65;;;5.00;;
66727;SDS011;53641;44.274;19.890;2022-08-16T04:52:51;10.43;;;5.18;;
66727;SDS011;53641;44.274;19.890;2022-08-16T04:55:19;5.90;;;4.50;;
66727;SDS011;53641;44.274;19.890;2022-08-16T04:57:48;11.88;;;5.50;;
66727;SDS011;53641;44.274;19.890;2022-08-16T05:00:17;12.63;;;5.68;;
66727;SDS011;53641;44.274;19.890;2022-08-16T05:02:44;8.40;;;5.82;;
66727;SDS011;53641;44.274;19.890;2022-08-16T05:05:12;12.13;;;5.30;;
66727;SDS011;53641;44.274;19.890;2022-08-16T05:07:38;11.02;;;5.40;;
66727;SDS011;53641;44.274;19.890;2022-08-16T05:10:05;10.05;;;5.60;;
66727;SDS011;53641;44.274;19.890;2022-08-16T05:12:33;10.27;;;5.63;;
66727;SDS011;53641;44.274;19.890;2022-08-16T05:14:59;9.65;;;5.28;;
66727;SDS011;53641;44.274;19.890;2022-08-16T05:17:25;9.48;;;4.65;;
66727;SDS011;53641;44.274;19.890;2022-08-16T05:19:51;8.90;;;5.18;;
66727;SDS011;53641;44.274;19.890;2022-08-16T05:22:18;12.57;;;5.63;;
66727;SDS011;53641;44.274;19.890;2022-08-16T05:24:44;12.55;;;6.22;;
66727;SDS011;53641;44.274;19.890;2022-08-16T05:27:09;13.90;;;5.07;;
66727;SDS011;53641;44.274;19.890;2022-08-16T05:29:35;15.20;;;5.70;;
66727;SDS011;53641;44.274;19.890;2022-08-16T05:32:01;19.90;;;5.38;;
66727;SDS011;53641;44.274;19.890;2022-08-16T05:34:27;11.95;;;4.68;;
66727;SDS011;53641;44.274;19.890;2022-08-16T05:36:54;10.10;;;4.40;;
66727;SDS011;53641;44.274;19.890;2022-08-16T05:39:22;7.22;;;4.65;;
66727;SDS011;53641;44.274;19.890;2022-08-16T05:41:48;11.13;;;5.30;;
66727;SDS011;53641;44.274;19.890;2022-08-16T05:44:15;6.07;;;4.45;;
66727;SDS011;53641;44.274;19.890;2022-08-16T05:46:42;11.68;;;4.60;;
66727;SDS011;53641;44.274;19.890;2022-08-16T05:49:09;7.50;;;4.70;;
66727;SDS011;53641;44.274;19.890;2022-08-16T05:51:37;6.40;;;4.68;;
66727;SDS011;53641;44.274;19.890;2022-08-16T05:54:03;10.43;;;4.82;;
66727;SDS011;53641;44.274;19.890;2022-08-16T05:56:29;10.52;;;4.28;;
66727;SDS011;53641;44.274;19.890;2022-08-16T05:58:55;11.15;;;5.20;;
66727;SDS011;53641;44.274;19.890;2022-08-16T06:01:21;6.72;;;4.20;;
66727;SDS011;53641;44.274;19.890;2022-08-16T06:03:47;6.20;;;4.43;;
66727;SDS011;53641;44.274;19.890;2022-08-16T06:06:13;7.70;;;4.40;;
66727;SDS011;53641;44.274;19.890;2022-08-16T06:08:39;4.88;;;3.80;;
66727;SDS011;53641;44.274;19.890;2022-08-16T06:11:05;6.45;;;3.47;;
66727;SDS011;53641;44.274;19.890;2022-08-16T06:13:32;6.43;;;3.28;;
66727;SDS011;53641;44.274;19.890;2022-08-16T06:15:59;6.72;;;3.28;;
66727;SDS011;53641;44.274;19.890;2022-08-16T06:18:25;8.27;;;3.63;;
66727;SDS011;53641;44.274;19.890;2022-08-16T06:20:50;5.65;;;3.50;;
66727;SDS011;53641;44.274;19.890;2022-08-16T06:23:16;6.28;;;3.63;;
66727;SDS011;53641;44.274;19.890;2022-08-16T06:25:42;5.20;;;3.30;;
66727;SDS011;53641;44.274;19.890;2022-08-16T06:28:09;6.32;;;3.47;;
66727;SDS011;53641;44.274;19.890;2022-08-16T06:30:36;6.93;;;3.30;;
66727;SDS011;53641;44.274;19.890;2022-08-16T06:33:02;6.25;;;3.10;;
66727;SDS011;53641;44.274;19.890;2022-08-16T06:35:28;6.75;;;3.30;;
66727;SDS011;53641;44.274;19.890;2022-08-16T06:37:55;8.82;;;3.58;;
66727;SDS011;53641;44.274;19.890;2022-08-16T06:40:21;7.82;;;3.50;;
66727;SDS011;53641;44.274;19.890;2022-08-16T06:42:49;8.18;;;3.78;;
66727;SDS011;53641;44.274;19.890;2022-08-16T06:45:16;8.23;;;3.50;;
66727;SDS011;53641;44.274;19.890;2022-08-16T06:47:42;4.43;;;3.80;;
66727;SDS011;53641;44.274;19.890;2022-08-16T06:50:08;5.65;;;3.60;;
66727;SDS011;53641;44.274;19.890;2022-08-16T06:52:35;6.45;;;3.60;;
66727;SDS011;53641;44.274;19.890;2022-08-16T06:55:04;4.63;;;3.05;;
66727;SDS011;53641;44.274;19.890;2022-08-16T06:57:31;4.75;;;2.85;;
66727;SDS011;53641;44.274;19.890;2022-08-16T06:59:57;5.40;;;3.10;;
66727;SDS011;53641;44.274;19.890;2022-08-16T07:02:23;4.93;;;3.17;;
66727;SDS011;53641;44.274;19.890;2022-08-16T07:04:49;4.30;;;2.83;;
66727;SDS011;53641;44.274;19.890;2022-08-16T07:07:17;3.97;;;2.92;;
66727;SDS011;53641;44.274;19.890;2022-08-16T07:09:44;6.72;;;2.47;;
66727;SDS011;53641;44.274;19.890;2022-08-16T07:12:11;5.18;;;3.00;;
66727;SDS011;53641;44.274;19.890;2022-08-16T07:14:38;4.15;;;2.75;;
66727;SDS011;53641;44.274;19.890;2022-08-16T07:17:04;4.18;;;2.90;;
66727;SDS011;53641;44.274;19.890;2022-08-16T07:19:31;4.07;;;2.30;;
66727;SDS011;53641;44.274;19.890;2022-08-16T07:21:57;8.82;;;2.60;;
66727;SDS011;53641;44.274;19.890;2022-08-16T07:24:26;3.10;;;2.47;;
66727;SDS011;53641;44.274;19.890;2022-08-16T07:26:53;5.45;;;3.08;;
66727;SDS011;53641;44.274;19.890;2022-08-16T07:29:22;3.45;;;2.67;;
66727;SDS011;53641;44.274;19.890;2022-08-16T07:31:47;4.78;;;2.90;;
66727;SDS011;53641;44.274;19.890;2022-08-16T07:34:13;4.15;;;2.50;;
66727;SDS011;53641;44.274;19.890;2022-08-16T07:36:39;3.05;;;2.75;;
66727;SDS011;53641;44.274;19.890;2022-08-16T07:39:05;3.65;;;2.42;;
66727;SDS011;53641;44.274;19.890;2022-08-16T07:41:32;3.85;;;2.53;;
66727;SDS011;53641;44.274;19.890;2022-08-16T07:44:00;5.85;;;2.78;;
66727;SDS011;53641;44.274;19.890;2022-08-16T07:46:26;4.95;;;2.40;;
66727;SDS011;53641;44.274;19.890;2022-08-16T07:48:52;6.25;;;2.72;;
66727;SDS011;53641;44.274;19.890;2022-08-16T07:51:18;4.35;;;2.47;;
66727;SDS011;53641;44.274;19.890;2022-08-16T07:53:44;4.88;;;2.58;;
66727;SDS011;53641;44.274;19.890;2022-08-16T07:56:15;5.60;;;2.40;;
66727;SDS011;53641;44.274;19.890;2022-08-16T07:58:41;5.50;;;2.60;;
66727;SDS011;53641;44.274;19.890;2022-08-16T08:01:07;3.25;;;2.30;;
66727;SDS011;53641;44.274;19.890;2022-08-16T08:03:32;5.72;;;2.95;;
66727;SDS011;53641;44.274;19.890;2022-08-16T08:05:59;3.45;;;2.47;;
66727;SDS011;53641;44.274;19.890;2022-08-16T08:08:25;4.63;;;2.47;;
66727;SDS011;53641;44.274;19.890;2022-08-16T08:10:51;2.78;;;2.20;;
66727;SDS011;53641;44.274;19.890;2022-08-16T08:13:17;5.50;;;2.38;;
66727;SDS011;53641;44.274;19.890;2022-08-16T08:15:43;5.63;;;2.40;;
66727;SDS011;53641;44.274;19.890;2022-08-16T08:18:11;4.17;;;2.30;;
66727;SDS011;53641;44.274;19.890;2022-08-16T08:20:37;4.20;;;1.90;;
66727;SDS011;53641;44.274;19.890;2022-08-16T08:23:09;7.07;;;2.13;;
66727;SDS011;53641;44.274;19.890;2022-08-16T08:25:40;3.60;;;2.20;;
66727;SDS011;53641;44.274;19.890;2022-08-16T08:28:06;4.28;;;2.30;;
66727;SDS011;53641;44.274;19.890;2022-08-16T08:30:32;2.53;;;1.80;;
66727;SDS011;53641;44.274;19.890;2022-08-16T08:32:59;2.83;;;1.73;;
66727;SDS011;53641;44.274;19.890;2022-08-16T08:35:25;4.97;;;2.00;;
66727;SDS011;53641;44.274;19.890;2022-08-16T08:37:51;4.13;;;2.10;;
66727;SDS011;53641;44.274;19.890;2022-08-16T08:40:18;8.02;;;2.13;;
66727;SDS011;53641;44.274;19.890;2022-08-16T08:42:44;3.70;;;1.98;;
66727;SDS011;53641;44.274;19.890;2022-08-16T08:45:10;2.78;;;1.90;;
66727;SDS011;53641;44.274;19.890;2022-08-16T08:47:36;3.47;;;1.90;;
66727;SDS011;53641;44.274;19.890;2022-08-16T08:50:03;7.55;;;2.08;;
66727;SDS011;53641;44.274;19.890;2022-08-16T08:52:30;5.38;;;2.30;;
66727;SDS011;53641;44.274;19.890;2022-08-16T08:54:55;3.08;;;1.80;;
66727;SDS011;53641;44.274;19.890;2022-08-16T08:57:22;2.60;;;1.90;;
66727;SDS011;53641;44.274;19.890;2022-08-16T08:59:48;4.85;;;1.98;;
66727;SDS011;53641;44.274;19.890;2022-08-16T09:02:15;3.70;;;1.80;;
66727;SDS011;53641;44.274;19.890;2022-08-16T09:04:43;4.32;;;2.20;;
66727;SDS011;53641;44.274;19.890;2022-08-16T09:07:09;8.43;;;1.77;;
66727;SDS011;53641;44.274;19.890;2022-08-16T09:09:35;3.83;;;2.00;;
66727;SDS011;53641;44.274;19.890;2022-08-16T09:12:02;2.92;;;1.80;;
66727;SDS011;53641;44.274;19.890;2022-08-16T09:14:29;6.53;;;1.80;;
66727;SDS011;53641;44.274;19.890;2022-08-16T09:16:56;3.83;;;1.70;;
66727;SDS011;53641;44.274;19.890;2022-08-16T09:19:21;4.28;;;1.77;;
66727;SDS011;53641;44.274;19.890;2022-08-16T09:21:48;4.88;;;2.05;;
66727;SDS011;53641;44.274;19.890;2022-08-16T09:24:15;3.08;;;1.80;;
66727;SDS011;53641;44.274;19.890;2022-08-16T09:26:42;4.20;;;2.00;;
66727;SDS011;53641;44.274;19.890;2022-08-16T09:29:08;3.78;;;2.42;;
66727;SDS011;53641;44.274;19.890;2022-08-16T09:31:33;6.20;;;2.38;;
66727;SDS011;53641;44.274;19.890;2022-08-16T09:33:59;4.63;;;2.00;;
66727;SDS011;53641;44.274;19.890;2022-08-16T09:36:27;9.18;;;2.40;;
66727;SDS011;53641;44.274;19.890;2022-08-16T09:38:54;3.25;;;1.95;;
66727;SDS011;53641;44.274;19.890;2022-08-16T09:41:20;3.45;;;1.90;;
66727;SDS011;53641;44.274;19.890;2022-08-16T09:43:46;3.10;;;1.73;;
66727;SDS011;53641;44.274;19.890;2022-08-16T09:46:12;5.57;;;2.15;;
66727;SDS011;53641;44.274;19.890;2022-08-16T09:48:38;4.63;;;2.13;;
66727;SDS011;53641;44.274;19.890;2022-08-16T09:51:07;3.05;;;1.77;;
66727;SDS011;53641;44.274;19.890;2022-08-16T09:53:33;3.72;;;2.20;;
66727;SDS011;53641;44.274;19.890;2022-08-16T09:55:59;2.53;;;1.60;;
66727;SDS011;53641;44.274;19.890;2022-08-16T09:58:26;8.52;;;2.17;;
66727;SDS011;53641;44.274;19.890;2022-08-16T10:00:52;4.47;;;1.95;;
66727;SDS011;53641;44.274;19.890;2022-08-16T10:03:18;4.80;;;2.50;;
66727;SDS011;53641;44.274;19.890;2022-08-16T10:05:45;4.80;;;2.35;;
66727;SDS011;53641;44.274;19.890;2022-08-16T10:08:12;5.40;;;2.00;;
66727;SDS011;53641;44.274;19.890;2022-08-16T10:10:38;3.70;;;1.92;;
66727;SDS011;53641;44.274;19.890;2022-08-16T10:13:05;5.78;;;2.30;;
66727;SDS011;53641;44.274;19.890;2022-08-16T10:15:43;4.70;;;2.15;;
66727;SDS011;53641;44.274;19.890;2022-08-16T10:18:12;5.13;;;2.10;;
66727;SDS011;53641;44.274;19.890;2022-08-16T10:20:39;5.53;;;2.17;;
66727;SDS011;53641;44.274;19.890;2022-08-16T10:23:08;6.90;;;2.80;;
66727;SDS011;53641;44.274;19.890;2022-08-16T10:25:38;4.57;;;2.10;;
66727;SDS011;53641;44.274;19.890;2022-08-16T10:28:05;3.03;;;2.15;;
66727;SDS011;53641;44.274;19.890;2022-08-16T10:30:32;5.22;;;2.08;;
66727;SDS011;53641;44.274;19.890;2022-08-16T10:32:58;3.72;;;2.08;;
66727;SDS011;53641;44.274;19.890;2022-08-16T10:35:27;7.70;;;2.35;;
66727;SDS011;53641;44.274;19.890;2022-08-16T10:37:53;5.05;;;1.83;;
66727;SDS011;53641;44.274;19.890;2022-08-16T10:40:19;3.97;;;1.90;;
66727;SDS011;53641;44.274;19.890;2022-08-16T10:42:45;4.68;;;2.35;;
66727;SDS011;53641;44.274;19.890;2022-08-16T10:45:13;3.78;;;2.28;;
66727;SDS011;53641;44.274;19.890;2022-08-16T10:47:40;4.55;;;2.50;;
66727;SDS011;53641;44.274;19.890;2022-08-16T10:50:21;6.18;;;2.50;;
66727;SDS011;53641;44.274;19.890;2022-08-16T10:52:47;3.92;;;2.13;;
66727;SDS011;53641;44.274;19.890;2022-08-16T10:55:13;5.00;;;2.05;;
66727;SDS011;53641;44.274;19.890;2022-08-16T10:57:39;5.82;;;2.08;;
66727;SDS011;53641;44.274;19.890;2022-08-16T11:00:06;4.70;;;2.10;;
66727;SDS011;53641;44.274;19.890;2022-08-16T11:02:36;4.03;;;2.20;;
66727;SDS011;53641;44.274;19.890;2022-08-16T11:05:03;5.72;;;2.10;;
66727;SDS011;53641;44.274;19.890;2022-08-16T11:07:30;10.20;;;2.67;;
66727;SDS011;53641;44.274;19.890;2022-08-16T11:09:56;5.75;;;1.98;;
66727;SDS011;53641;44.274;19.890;2022-08-16T11:14:52;5.85;;;2.50;;
66727;SDS011;53641;44.274;19.890;2022-08-16T11:17:17;7.00;;;2.72;;
66727;SDS011;53641;44.274;19.890;2022-08-16T11:19:43;4.75;;;2.30;;
66727;SDS011;53641;44.274;19.890;2022-08-16T11:22:09;3.42;;;2.20;;
66727;SDS011;53641;44.274;19.890;2022-08-16T11:24:35;4.80;;;2.78;;
66727;SDS011;53641;44.274;19.890;2022-08-16T11:27:06;5.40;;;2.40;;
66727;SDS011;53641;44.274;19.890;2022-08-16T11:29:32;4.35;;;2.22;;
66727;SDS011;53641;44.274;19.890;2022-08-16T11:31:59;3.88;;;2.50;;
66727;SDS011;53641;44.274;19.890;2022-08-16T11:34:25;3.22;;;2.20;;
66727;SDS011;53641;44.274;19.890;2022-08-16T11:36:51;4.15;;;2.67;;
66727;SDS011;53641;44.274;19.890;2022-08-16T11:39:17;5.50;;;2.22;;
66727;SDS011;53641;44.274;19.890;2022-08-16T11:41:43;5.45;;;2.70;;
66727;SDS011;53641;44.274;19.890;2022-08-16T11:44:09;7.93;;;2.92;;
66727;SDS011;53641;44.274;19.890;2022-08-16T11:46:36;3.83;;;2.40;;
66727;SDS011;53641;44.274;19.890;2022-08-16T11:49:03;3.30;;;2.38;;
66727;SDS011;53641;44.274;19.890;2022-08-16T11:51:29;3.75;;;2.42;;
66727;SDS011;53641;44.274;19.890;2022-08-16T11:53:55;4.88;;;2.42;;
66727;SDS011;53641;44.274;19.890;2022-08-16T11:56:22;3.63;;;2.40;;
66727;SDS011;53641;44.274;19.890;2022-08-16T11:58:48;4.85;;;2.50;;
66727;SDS011;53641;44.274;19.890;2022-08-16T12:01:14;6.15;;;2.63;;
66727;SDS011;53641;44.274;19.890;2022-08-16T12:03:40;2.75;;;1.80;;
66727;SDS011;53641;44.274;19.890;2022-08-16T12:06:08;4.95;;;2.42;;
66727;SDS011;53641;44.274;19.890;2022-08-16T12:08:36;7.57;;;2.42;;
66727;SDS011;53641;44.274;19.890;2022-08-16T12:11:03;8.65;;;2.40;;
66727;SDS011;53641;44.274;19.890;2022-08-16T12:13:30;5.95;;;2.40;;
66727;SDS011;53641;44.274;19.890;2022-08-16T12:15:56;3.72;;;1.88;;
66727;SDS011;53641;44.274;19.890;2022-08-16T12:18:22;4.82;;;2.00;;
66727;SDS011;53641;44.274;19.890;2022-08-16T12:20:48;5.78;;;2.17;;
66727;SDS011;53641;44.274;19.890;2022-08-16T12:23:15;4.32;;;2.15;;
66727;SDS011;53641;44.274;19.890;2022-08-16T12:25:41;5.90;;;2.10;;
66727;SDS011;53641;44.274;19.890;2022-08-16T12:28:08;2.95;;;1.85;;
66727;SDS011;53641;44.274;19.890;2022-08-16T12:30:36;6.85;;;1.80;;
66727;SDS011;53641;44.274;19.890;2022-08-16T12:33:04;6.57;;;2.15;;
66727;SDS011;53641;44.274;19.890;2022-08-16T12:35:31;4.38;;;2.03;;
66727;SDS011;53641;44.274;19.890;2022-08-16T12:37:59;4.68;;;2.20;;
66727;SDS011;53641;44.274;19.890;2022-08-16T12:40:27;5.78;;;3.03;;
66727;SDS011;53641;44.274;19.890;2022-08-16T12:42:56;3.63;;;2.20;;
66727;SDS011;53641;44.274;19.890;2022-08-16T12:45:25;4.75;;;2.20;;
66727;SDS011;53641;44.274;19.890;2022-08-16T12:47:52;5.32;;;2.50;;
66727;SDS011;53641;44.274;19.890;2022-08-16T12:50:38;6.13;;;2.47;;
66727;SDS011;53641;44.274;19.890;2022-08-16T12:53:04;3.38;;;2.00;;
66727;SDS011;53641;44.274;19.890;2022-08-16T12:55:30;4.10;;;2.08;;
66727;SDS011;53641;44.274;19.890;2022-08-16T12:57:56;3.78;;;1.88;;
66727;SDS011;53641;44.274;19.890;2022-08-16T13:00:24;2.35;;;1.65;;
66727;SDS011;53641;44.274;19.890;2022-08-16T13:02:53;6.13;;;1.80;;
66727;SDS011;53641;44.274;19.890;2022-08-16T13:05:23;3.33;;;2.10;;
66727;SDS011;53641;44.274;19.890;2022-08-16T13:07:49;3.60;;;2.10;;
66727;SDS011;53641;44.274;19.890;2022-08-16T13:10:16;4.38;;;2.10;;
66727;SDS011;53641;44.274;19.890;2022-08-16T13:12:44;4.43;;;2.53;;
66727;SDS011;53641;44.274;19.890;2022-08-16T13:15:13;4.72;;;2.17;;
66727;SDS011;53641;44.274;19.890;2022-08-16T13:17:40;5.40;;;2.20;;
66727;SDS011;53641;44.274;19.890;2022-08-16T13:20:08;4.50;;;1.83;;
66727;SDS011;53641;44.274;19.890;2022-08-16T13:22:42;4.07;;;2.10;;
66727;SDS011;53641;44.274;19.890;2022-08-16T13:25:11;3.53;;;2.20;;
66727;SDS011;53641;44.274;19.890;2022-08-16T13:27:38;3.38;;;1.98;;
66727;SDS011;53641;44.274;19.890;2022-08-16T13:30:04;5.68;;;2.47;;
66727;SDS011;53641;44.274;19.890;2022-08-16T13:32:30;5.82;;;2.30;;
66727;SDS011;53641;44.274;19.890;2022-08-16T13:34:56;4.25;;;2.20;;
66727;SDS011;53641;44.274;19.890;2022-08-16T13:37:22;5.00;;;2.60;;
66727;SDS011;53641;44.274;19.890;2022-08-16T13:39:47;2.72;;;2.33;;
66727;SDS011;53641;44.274;19.890;2022-08-16T13:42:13;9.77;;;2.25;;
66727;SDS011;53641;44.274;19.890;2022-08-16T13:44:39;9.20;;;2.35;;
66727;SDS011;53641;44.274;19.890;2022-08-16T13:47:05;5.88;;;2.55;;
66727;SDS011;53641;44.274;19.890;2022-08-16T13:49:31;3.85;;;2.13;;
66727;SDS011;53641;44.274;19.890;2022-08-16T13:51:57;6.35;;;2.10;;
66727;SDS011;53641;44.274;19.890;2022-08-16T13:54:23;3.83;;;2.50;;
66727;SDS011;53641;44.274;19.890;2022-08-16T13:56:49;6.75;;;2.47;;
66727;SDS011;53641;44.274;19.890;2022-08-16T13:59:15;6.50;;;2.30;;
66727;SDS011;53641;44.274;19.890;2022-08-16T14:01:43;4.35;;;2.25;;
66727;SDS011;53641;44.274;19.890;2022-08-16T14:04:11;4.85;;;1.95;;
66727;SDS011;53641;44.274;19.890;2022-08-16T14:06:38;3.78;;;2.78;;
66727;SDS011;53641;44.274;19.890;2022-08-16T14:09:04;6.63;;;2.55;;
66727;SDS011;53641;44.274;19.890;2022-08-16T14:11:29;8.57;;;2.47;;
66727;SDS011;53641;44.274;19.890;2022-08-16T14:13:55;3.63;;;2.78;;
66727;SDS011;53641;44.274;19.890;2022-08-16T14:16:23;7.03;;;2.30;;
66727;SDS011;53641;44.274;19.890;2022-08-16T14:18:48;4.50;;;2.25;;
66727;SDS011;53641;44.274;19.890;2022-08-16T14:21:14;6.97;;;2.10;;
66727;SDS011;53641;44.274;19.890;2022-08-16T14:23:40;5.15;;;2.30;;
66727;SDS011;53641;44.274;19.890;2022-08-16T14:26:06;8.15;;;2.50;;
66727;SDS011;53641;44.274;19.890;2022-08-16T14:28:32;4.50;;;1.98;;
66727;SDS011;53641;44.274;19.890;2022-08-16T14:30:58;5.35;;;2.13;;
66727;SDS011;53641;44.274;19.890;2022-08-16T14:33:24;3.33;;;2.10;;
66727;SDS011;53641;44.274;19.890;2022-08-16T14:35:50;4.35;;;1.80;;